sensor_id;sensor_type;location;lat;lon;timestamp;P1;durP1;ratioP1;P2;durP2;ratioP2
10657;SDS011;5377;43.276;26.930;2024-02-23T00:01:22;27.73;;;20.10;;
10657;SDS011;5377;43.276;26.930;2024-02-23T00:03:49;30.40;;;20.97;;
10657;SDS011;5377;43.276;26.930;2024-02-23T00:06:15;26.97;;;19.13;;
10657;SDS011;5377;43.276;26.930;2024-02-23T00:08:42;26.40;;;17.93;;
10657;SDS011;5377;43.276;26.930;2024-02-23T00:11:10;25.57;;;18.13;;
10657;SDS011;5377;43.276;26.930;2024-02-23T00:13:36;23.10;;;16.97;;
10657;SDS011;5377;43.276;26.930;2024-02-23T00:16:03;20.13;;;15.83;;
10657;SDS011;5377;43.276;26.930;2024-02-23T00:18:30;19.53;;;16.37;;
10657;SDS011;5377;43.276;26.930;2024-02-23T00:20:56;21.47;;;16.00;;
10657;SDS011;5377;43.276;26.930;2024-02-23T00:23:23;22.80;;;16.47;;
10657;SDS011;5377;43.276;26.930;2024-02-23T00:25:49;25.03;;;17.00;;
10657;SDS011;5377;43.276;26.930;2024-02-23T00:28:17;24.30;;;16.33;;
10657;SDS011;5377;43.276;26.930;2024-02-23T00:30:43;24.70;;;17.93;;
10657;SDS011;5377;43.276;26.930;2024-02-23T00:33:10;23.33;;;17.50;;
10657;SDS011;5377;43.276;26.930;2024-02-23T00:35:36;20.13;;;16.03;;
10657;SDS011;5377;43.276;26.930;2024-02-23T00:38:03;24.73;;;18.53;;
10657;SDS011;5377;43.276;26.930;2024-02-23T00:40:30;26.73;;;19.90;;
10657;SDS011;5377;43.276;26.930;2024-02-23T00:42:56;25.33;;;18.97;;
10657;SDS011;5377;43.276;26.930;2024-02-23T00:45:26;28.83;;;20.03;;
10657;SDS011;5377;43.276;26.930;2024-02-23T00:47:53;30.13;;;22.03;;
10657;SDS011;5377;43.276;26.930;2024-02-23T00:50:19;26.37;;;19.47;;
10657;SDS011;5377;43.276;26.930;2024-02-23T00:52:46;26.80;;;18.23;;
10657;SDS011;5377;43.276;26.930;2024-02-23T00:55:13;23.40;;;17.83;;
10657;SDS011;5377;43.276;26.930;2024-02-23T00:57:39;28.47;;;21.03;;
10657;SDS011;5377;43.276;26.930;2024-02-23T01:00:06;25.90;;;18.87;;
10657;SDS011;5377;43.276;26.930;2024-02-23T01:02:36;27.30;;;19.47;;
10657;SDS011;5377;43.276;26.930;2024-02-23T01:05:03;27.67;;;20.70;;
10657;SDS011;5377;43.276;26.930;2024-02-23T01:07:30;26.10;;;18.53;;
10657;SDS011;5377;43.276;26.930;2024-02-23T01:09:56;24.13;;;17.73;;
10657;SDS011;5377;43.276;26.930;2024-02-23T01:12:23;19.70;;;15.30;;
10657;SDS011;5377;43.276;26.930;2024-02-23T01:14:50;18.87;;;15.73;;
10657;SDS011;5377;43.276;26.930;2024-02-23T01:17:16;19.30;;;15.60;;
10657;SDS011;5377;43.276;26.930;2024-02-23T01:19:44;22.67;;;16.13;;
10657;SDS011;5377;43.276;26.930;2024-02-23T01:22:11;22.53;;;16.33;;
10657;SDS011;5377;43.276;26.930;2024-02-23T01:24:37;22.97;;;16.37;;
10657;SDS011;5377;43.276;26.930;2024-02-23T01:27:04;22.50;;;17.83;;
10657;SDS011;5377;43.276;26.930;2024-02-23T01:29:29;24.80;;;17.00;;
10657;SDS011;5377;43.276;26.930;2024-02-23T01:31:56;22.07;;;16.93;;
10657;SDS011;5377;43.276;26.930;2024-02-23T01:34:22;22.03;;;15.77;;
10657;SDS011;5377;43.276;26.930;2024-02-23T01:36:50;23.83;;;16.63;;
10657;SDS011;5377;43.276;26.930;2024-02-23T01:39:17;24.17;;;18.13;;
10657;SDS011;5377;43.276;26.930;2024-02-23T01:41:43;22.70;;;16.70;;
10657;SDS011;5377;43.276;26.930;2024-02-23T01:44:10;26.03;;;18.30;;
10657;SDS011;5377;43.276;26.930;2024-02-23T01:46:36;23.37;;;18.00;;
10657;SDS011;5377;43.276;26.930;2024-02-23T01:49:03;24.30;;;18.80;;
10657;SDS011;5377;43.276;26.930;2024-02-23T01:51:30;26.50;;;19.50;;
10657;SDS011;5377;43.276;26.930;2024-02-23T01:53:59;25.97;;;18.40;;
10657;SDS011;5377;43.276;26.930;2024-02-23T01:56:25;24.10;;;16.93;;
10657;SDS011;5377;43.276;26.930;2024-02-23T01:58:52;20.93;;;17.17;;
10657;SDS011;5377;43.276;26.930;2024-02-23T02:01:19;21.17;;;16.27;;
10657;SDS011;5377;43.276;26.930;2024-02-23T02:03:45;21.63;;;15.87;;
10657;SDS011;5377;43.276;26.930;2024-02-23T02:06:12;18.33;;;14.97;;
10657;SDS011;5377;43.276;26.930;2024-02-23T02:08:39;24.57;;;17.23;;
10657;SDS011;5377;43.276;26.930;2024-02-23T02:11:06;19.47;;;15.87;;
10657;SDS011;5377;43.276;26.930;2024-02-23T02:13:33;23.20;;;18.23;;
10657;SDS011;5377;43.276;26.930;2024-02-23T02:16:00;22.90;;;17.17;;
10657;SDS011;5377;43.276;26.930;2024-02-23T02:18:27;23.70;;;17.70;;
10657;SDS011;5377;43.276;26.930;2024-02-23T02:20:54;19.40;;;16.30;;
10657;SDS011;5377;43.276;26.930;2024-02-23T02:23:20;20.53;;;16.33;;
10657;SDS011;5377;43.276;26.930;2024-02-23T02:25:51;25.00;;;18.07;;
10657;SDS011;5377;43.276;26.930;2024-02-23T02:28:19;25.13;;;19.33;;
10657;SDS011;5377;43.276;26.930;2024-02-23T02:30:46;26.20;;;19.50;;
10657;SDS011;5377;43.276;26.930;2024-02-23T02:33:12;27.03;;;21.13;;
10657;SDS011;5377;43.276;26.930;2024-02-23T02:35:39;24.70;;;18.37;;
10657;SDS011;5377;43.276;26.930;2024-02-23T02:38:05;23.20;;;17.47;;
10657;SDS011;5377;43.276;26.930;2024-02-23T02:40:32;22.53;;;17.80;;
10657;SDS011;5377;43.276;26.930;2024-02-23T02:42:58;24.50;;;17.87;;
10657;SDS011;5377;43.276;26.930;2024-02-23T02:45:26;24.70;;;16.70;;
10657;SDS011;5377;43.276;26.930;2024-02-23T02:47:53;22.93;;;16.57;;
10657;SDS011;5377;43.276;26.930;2024-02-23T02:50:19;21.27;;;16.33;;
10657;SDS011;5377;43.276;26.930;2024-02-23T02:52:46;22.03;;;16.37;;
10657;SDS011;5377;43.276;26.930;2024-02-23T02:55:13;22.47;;;17.30;;
10657;SDS011;5377;43.276;26.930;2024-02-23T02:57:39;25.17;;;17.77;;
10657;SDS011;5377;43.276;26.930;2024-02-23T03:00:09;22.90;;;17.60;;
10657;SDS011;5377;43.276;26.930;2024-02-23T03:02:37;26.57;;;18.67;;
10657;SDS011;5377;43.276;26.930;2024-02-23T03:05:04;30.07;;;21.67;;
10657;SDS011;5377;43.276;26.930;2024-02-23T03:07:31;22.53;;;18.13;;
10657;SDS011;5377;43.276;26.930;2024-02-23T03:09:57;24.77;;;17.90;;
10657;SDS011;5377;43.276;26.930;2024-02-23T03:12:24;22.87;;;18.27;;
10657;SDS011;5377;43.276;26.930;2024-02-23T03:14:50;22.27;;;17.23;;
10657;SDS011;5377;43.276;26.930;2024-02-23T03:17:17;24.50;;;18.27;;
10657;SDS011;5377;43.276;26.930;2024-02-23T03:19:44;23.47;;;18.00;;
10657;SDS011;5377;43.276;26.930;2024-02-23T03:22:11;25.03;;;18.07;;
10657;SDS011;5377;43.276;26.930;2024-02-23T03:24:37;20.87;;;16.73;;
10657;SDS011;5377;43.276;26.930;2024-02-23T03:27:04;23.83;;;16.93;;
10657;SDS011;5377;43.276;26.930;2024-02-23T03:29:30;19.93;;;15.20;;
10657;SDS011;5377;43.276;26.930;2024-02-23T03:31:57;22.63;;;17.70;;
10657;SDS011;5377;43.276;26.930;2024-02-23T03:34:23;21.17;;;16.50;;
10657;SDS011;5377;43.276;26.930;2024-02-23T03:36:51;24.67;;;18.83;;
10657;SDS011;5377;43.276;26.930;2024-02-23T03:39:18;23.30;;;18.07;;
10657;SDS011;5377;43.276;26.930;2024-02-23T03:41:43;22.47;;;17.63;;
10657;SDS011;5377;43.276;26.930;2024-02-23T03:44:10;23.80;;;16.97;;
10657;SDS011;5377;43.276;26.930;2024-02-23T03:46:36;26.03;;;18.93;;
10657;SDS011;5377;43.276;26.930;2024-02-23T03:49:03;22.40;;;17.57;;
10657;SDS011;5377;43.276;26.930;2024-02-23T03:51:29;21.47;;;16.43;;
10657;SDS011;5377;43.276;26.930;2024-02-23T03:53:59;23.53;;;18.03;;
10657;SDS011;5377;43.276;26.930;2024-02-23T03:56:25;24.47;;;18.17;;
10657;SDS011;5377;43.276;26.930;2024-02-23T03:58:52;25.40;;;19.53;;
10657;SDS011;5377;43.276;26.930;2024-02-23T04:01:18;27.07;;;19.83;;
10657;SDS011;5377;43.276;26.930;2024-02-23T04:03:45;26.90;;;20.60;;
10657;SDS011;5377;43.276;26.930;2024-02-23T04:06:11;24.60;;;18.87;;
10657;SDS011;5377;43.276;26.930;2024-02-23T04:08:38;26.20;;;18.73;;
10657;SDS011;5377;43.276;26.930;2024-02-23T04:11:07;23.23;;;19.33;;
10657;SDS011;5377;43.276;26.930;2024-02-23T04:13:33;24.17;;;17.77;;
10657;SDS011;5377;43.276;26.930;2024-02-23T04:16:00;23.03;;;19.20;;
10657;SDS011;5377;43.276;26.930;2024-02-23T04:18:27;27.33;;;20.97;;
10657;SDS011;5377;43.276;26.930;2024-02-23T04:20:54;21.53;;;18.50;;
10657;SDS011;5377;43.276;26.930;2024-02-23T04:23:21;26.80;;;19.83;;
10657;SDS011;5377;43.276;26.930;2024-02-23T04:25:47;24.20;;;18.27;;
10657;SDS011;5377;43.276;26.930;2024-02-23T04:28:17;25.57;;;19.60;;
10657;SDS011;5377;43.276;26.930;2024-02-23T04:30:44;26.37;;;21.13;;
10657;SDS011;5377;43.276;26.930;2024-02-23T04:33:10;27.40;;;19.77;;
10657;SDS011;5377;43.276;26.930;2024-02-23T04:35:36;24.03;;;20.07;;
10657;SDS011;5377;43.276;26.930;2024-02-23T04:38:03;27.67;;;18.77;;
10657;SDS011;5377;43.276;26.930;2024-02-23T04:40:30;25.30;;;19.07;;
10657;SDS011;5377;43.276;26.930;2024-02-23T04:42:56;23.87;;;19.53;;
10657;SDS011;5377;43.276;26.930;2024-02-23T04:45:24;23.77;;;21.00;;
10657;SDS011;5377;43.276;26.930;2024-02-23T04:47:51;26.77;;;21.50;;
10657;SDS011;5377;43.276;26.930;2024-02-23T04:50:17;30.47;;;24.27;;
10657;SDS011;5377;43.276;26.930;2024-02-23T04:52:44;32.10;;;23.03;;
10657;SDS011;5377;43.276;26.930;2024-02-23T04:55:10;29.63;;;23.00;;
10657;SDS011;5377;43.276;26.930;2024-02-23T04:57:37;30.80;;;22.10;;
10657;SDS011;5377;43.276;26.930;2024-02-23T05:00:05;28.33;;;22.67;;
10657;SDS011;5377;43.276;26.930;2024-02-23T05:02:34;29.30;;;23.77;;
10657;SDS011;5377;43.276;26.930;2024-02-23T05:05:01;31.30;;;25.40;;
10657;SDS011;5377;43.276;26.930;2024-02-23T05:07:29;30.70;;;24.13;;
10657;SDS011;5377;43.276;26.930;2024-02-23T05:09:56;31.43;;;26.20;;
10657;SDS011;5377;43.276;26.930;2024-02-23T05:12:22;30.63;;;25.43;;
10657;SDS011;5377;43.276;26.930;2024-02-23T05:14:49;32.27;;;24.63;;
10657;SDS011;5377;43.276;26.930;2024-02-23T05:17:15;34.03;;;25.20;;
10657;SDS011;5377;43.276;26.930;2024-02-23T05:19:43;28.60;;;23.10;;
10657;SDS011;5377;43.276;26.930;2024-02-23T05:22:11;29.03;;;23.00;;
10657;SDS011;5377;43.276;26.930;2024-02-23T05:24:38;26.50;;;22.07;;
10657;SDS011;5377;43.276;26.930;2024-02-23T05:27:04;27.53;;;21.17;;
10657;SDS011;5377;43.276;26.930;2024-02-23T05:29:31;25.80;;;21.17;;
10657;SDS011;5377;43.276;26.930;2024-02-23T05:31:57;26.57;;;22.17;;
10657;SDS011;5377;43.276;26.930;2024-02-23T05:34:24;32.40;;;23.63;;
10657;SDS011;5377;43.276;26.930;2024-02-23T05:36:52;50.03;;;35.40;;
10657;SDS011;5377;43.276;26.930;2024-02-23T05:39:18;42.30;;;36.33;;
10657;SDS011;5377;43.276;26.930;2024-02-23T05:41:45;39.50;;;31.27;;
10657;SDS011;5377;43.276;26.930;2024-02-23T05:44:12;33.93;;;27.13;;
10657;SDS011;5377;43.276;26.930;2024-02-23T05:46:39;38.87;;;29.23;;
10657;SDS011;5377;43.276;26.930;2024-02-23T05:49:05;39.97;;;29.10;;
10657;SDS011;5377;43.276;26.930;2024-02-23T05:51:32;40.50;;;35.27;;
10657;SDS011;5377;43.276;26.930;2024-02-23T05:54:01;46.07;;;34.63;;
10657;SDS011;5377;43.276;26.930;2024-02-23T05:56:28;42.97;;;33.73;;
10657;SDS011;5377;43.276;26.930;2024-02-23T05:58:54;38.67;;;32.67;;
10657;SDS011;5377;43.276;26.930;2024-02-23T06:01:21;39.93;;;32.27;;
10657;SDS011;5377;43.276;26.930;2024-02-23T06:03:47;40.77;;;31.70;;
10657;SDS011;5377;43.276;26.930;2024-02-23T06:06:14;61.60;;;45.10;;
10657;SDS011;5377;43.276;26.930;2024-02-23T06:08:41;83.40;;;59.77;;
10657;SDS011;5377;43.276;26.930;2024-02-23T06:11:10;45.70;;;38.07;;
10657;SDS011;5377;43.276;26.930;2024-02-23T06:13:37;55.73;;;44.17;;
10657;SDS011;5377;43.276;26.930;2024-02-23T06:16:03;51.30;;;39.37;;
10657;SDS011;5377;43.276;26.930;2024-02-23T06:18:30;58.70;;;43.03;;
10657;SDS011;5377;43.276;26.930;2024-02-23T06:20:56;55.60;;;42.20;;
10657;SDS011;5377;43.276;26.930;2024-02-23T06:23:23;56.00;;;40.93;;
10657;SDS011;5377;43.276;26.930;2024-02-23T06:25:49;60.00;;;42.73;;
10657;SDS011;5377;43.276;26.930;2024-02-23T06:28:18;59.53;;;45.07;;
10657;SDS011;5377;43.276;26.930;2024-02-23T06:30:44;58.83;;;46.73;;
10657;SDS011;5377;43.276;26.930;2024-02-23T06:33:11;61.40;;;44.77;;
10657;SDS011;5377;43.276;26.930;2024-02-23T06:35:37;59.47;;;44.23;;
10657;SDS011;5377;43.276;26.930;2024-02-23T06:38:04;57.93;;;43.27;;
10657;SDS011;5377;43.276;26.930;2024-02-23T06:40:32;56.97;;;40.27;;
10657;SDS011;5377;43.276;26.930;2024-02-23T06:42:58;58.97;;;41.33;;
10657;SDS011;5377;43.276;26.930;2024-02-23T06:45:26;56.67;;;39.10;;
10657;SDS011;5377;43.276;26.930;2024-02-23T06:47:53;53.87;;;37.57;;
10657;SDS011;5377;43.276;26.930;2024-02-23T06:50:19;64.23;;;39.43;;
10657;SDS011;5377;43.276;26.930;2024-02-23T06:52:46;52.03;;;35.77;;
10657;SDS011;5377;43.276;26.930;2024-02-23T06:55:14;59.13;;;31.83;;
10657;SDS011;5377;43.276;26.930;2024-02-23T06:57:41;42.03;;;25.33;;
10657;SDS011;5377;43.276;26.930;2024-02-23T07:00:08;40.03;;;20.05;;
10657;SDS011;5377;43.276;26.930;2024-02-23T07:02:36;38.70;;;19.85;;
10657;SDS011;5377;43.276;26.930;2024-02-23T07:05:03;31.90;;;21.00;;
10657;SDS011;5377;43.276;26.930;2024-02-23T07:07:30;38.17;;;23.65;;
10657;SDS011;5377;43.276;26.930;2024-02-23T07:09:58;38.53;;;22.42;;
10657;SDS011;5377;43.276;26.930;2024-02-23T07:12:24;23.88;;;19.20;;
10657;SDS011;5377;43.276;26.930;2024-02-23T07:14:52;31.35;;;22.65;;
10657;SDS011;5377;43.276;26.930;2024-02-23T07:17:18;34.67;;;23.55;;
10657;SDS011;5377;43.276;26.930;2024-02-23T07:19:46;26.98;;;22.58;;
10657;SDS011;5377;43.276;26.930;2024-02-23T07:22:13;27.85;;;21.73;;
10657;SDS011;5377;43.276;26.930;2024-02-23T07:24:41;29.88;;;21.85;;
10657;SDS011;5377;43.276;26.930;2024-02-23T07:27:07;40.55;;;22.35;;
10657;SDS011;5377;43.276;26.930;2024-02-23T07:29:34;30.10;;;20.00;;
10657;SDS011;5377;43.276;26.930;2024-02-23T07:32:01;38.20;;;21.98;;
10657;SDS011;5377;43.276;26.930;2024-02-23T07:34:27;43.05;;;21.58;;
10657;SDS011;5377;43.276;26.930;2024-02-23T07:36:55;47.83;;;21.20;;
10657;SDS011;5377;43.276;26.930;2024-02-23T07:39:22;22.23;;;18.75;;
10657;SDS011;5377;43.276;26.930;2024-02-23T07:41:48;25.65;;;16.90;;
10657;SDS011;5377;43.276;26.930;2024-02-23T07:44:15;20.20;;;16.40;;
10657;SDS011;5377;43.276;26.930;2024-02-23T07:46:41;22.38;;;15.88;;
10657;SDS011;5377;43.276;26.930;2024-02-23T07:49:08;26.40;;;16.35;;
10657;SDS011;5377;43.276;26.930;2024-02-23T07:51:35;25.23;;;15.85;;
10657;SDS011;5377;43.276;26.930;2024-02-23T07:54:03;22.52;;;15.70;;
10657;SDS011;5377;43.276;26.930;2024-02-23T07:56:30;21.52;;;13.82;;
10657;SDS011;5377;43.276;26.930;2024-02-23T07:58:57;14.35;;;12.82;;
10657;SDS011;5377;43.276;26.930;2024-02-23T08:01:24;17.45;;;14.38;;
10657;SDS011;5377;43.276;26.930;2024-02-23T08:03:51;19.88;;;12.73;;
10657;SDS011;5377;43.276;26.930;2024-02-23T08:06:17;14.20;;;12.75;;
10657;SDS011;5377;43.276;26.930;2024-02-23T08:08:44;13.48;;;10.32;;
10657;SDS011;5377;43.276;26.930;2024-02-23T08:11:11;12.23;;;10.13;;
10657;SDS011;5377;43.276;26.930;2024-02-23T08:13:38;13.32;;;11.55;;
10657;SDS011;5377;43.276;26.930;2024-02-23T08:16:05;12.40;;;10.95;;
10657;SDS011;5377;43.276;26.930;2024-02-23T08:18:32;12.52;;;10.30;;
10657;SDS011;5377;43.276;26.930;2024-02-23T08:20:58;13.23;;;9.50;;
10657;SDS011;5377;43.276;26.930;2024-02-23T08:23:27;10.38;;;9.48;;
10657;SDS011;5377;43.276;26.930;2024-02-23T08:25:54;9.23;;;8.35;;
10657;SDS011;5377;43.276;26.930;2024-02-23T08:28:23;10.35;;;9.32;;
10657;SDS011;5377;43.276;26.930;2024-02-23T08:30:49;11.63;;;10.02;;
10657;SDS011;5377;43.276;26.930;2024-02-23T08:33:16;9.50;;;8.45;;
10657;SDS011;5377;43.276;26.930;2024-02-23T08:35:42;16.75;;;9.68;;
10657;SDS011;5377;43.276;26.930;2024-02-23T08:38:10;10.13;;;8.52;;
10657;SDS011;5377;43.276;26.930;2024-02-23T08:40:36;8.88;;;8.05;;
10657;SDS011;5377;43.276;26.930;2024-02-23T08:43:04;8.52;;;7.78;;
10657;SDS011;5377;43.276;26.930;2024-02-23T08:45:32;10.43;;;8.23;;
10657;SDS011;5377;43.276;26.930;2024-02-23T08:47:59;9.55;;;8.45;;
10657;SDS011;5377;43.276;26.930;2024-02-23T08:50:25;9.98;;;8.85;;
10657;SDS011;5377;43.276;26.930;2024-02-23T08:52:52;10.10;;;8.50;;
10657;SDS011;5377;43.276;26.930;2024-02-23T08:55:18;9.40;;;8.32;;
10657;SDS011;5377;43.276;26.930;2024-02-23T08:57:46;12.75;;;7.85;;
10657;SDS011;5377;43.276;26.930;2024-02-23T09:00:13;8.90;;;8.10;;
10657;SDS011;5377;43.276;26.930;2024-02-23T09:02:41;8.85;;;8.15;;
10657;SDS011;5377;43.276;26.930;2024-02-23T09:05:08;10.32;;;8.05;;
10657;SDS011;5377;43.276;26.930;2024-02-23T09:07:34;9.32;;;7.60;;
10657;SDS011;5377;43.276;26.930;2024-02-23T09:10:01;8.57;;;7.70;;
10657;SDS011;5377;43.276;26.930;2024-02-23T09:12:29;8.65;;;7.88;;
10657;SDS011;5377;43.276;26.930;2024-02-23T09:14:55;9.18;;;7.75;;
10657;SDS011;5377;43.276;26.930;2024-02-23T09:17:22;8.05;;;6.97;;
10657;SDS011;5377;43.276;26.930;2024-02-23T09:19:50;10.50;;;8.23;;
10657;SDS011;5377;43.276;26.930;2024-02-23T09:22:16;7.65;;;6.95;;
10657;SDS011;5377;43.276;26.930;2024-02-23T09:24:43;8.38;;;7.45;;
10657;SDS011;5377;43.276;26.930;2024-02-23T09:27:09;9.00;;;8.20;;
10657;SDS011;5377;43.276;26.930;2024-02-23T09:29:36;9.15;;;7.80;;
10657;SDS011;5377;43.276;26.930;2024-02-23T09:32:02;7.85;;;7.15;;
10657;SDS011;5377;43.276;26.930;2024-02-23T09:34:30;7.50;;;6.68;;
10657;SDS011;5377;43.276;26.930;2024-02-23T09:36:58;7.90;;;6.95;;
10657;SDS011;5377;43.276;26.930;2024-02-23T09:39:24;8.63;;;7.50;;
10657;SDS011;5377;43.276;26.930;2024-02-23T09:41:55;8.35;;;7.10;;
10657;SDS011;5377;43.276;26.930;2024-02-23T09:44:22;10.43;;;7.90;;
10657;SDS011;5377;43.276;26.930;2024-02-23T09:46:48;8.07;;;7.28;;
10657;SDS011;5377;43.276;26.930;2024-02-23T09:49:15;9.60;;;7.72;;
10657;SDS011;5377;43.276;26.930;2024-02-23T09:51:42;7.85;;;7.03;;
10657;SDS011;5377;43.276;26.930;2024-02-23T09:54:10;9.48;;;8.05;;
10657;SDS011;5377;43.276;26.930;2024-02-23T09:56:37;8.25;;;7.45;;
10657;SDS011;5377;43.276;26.930;2024-02-23T09:59:04;8.02;;;7.20;;
10657;SDS011;5377;43.276;26.930;2024-02-23T10:01:31;9.00;;;8.20;;
10657;SDS011;5377;43.276;26.930;2024-02-23T10:03:58;10.40;;;8.60;;
10657;SDS011;5377;43.276;26.930;2024-02-23T10:06:25;12.57;;;8.43;;
10657;SDS011;5377;43.276;26.930;2024-02-23T10:08:51;8.35;;;7.55;;
10657;SDS011;5377;43.276;26.930;2024-02-23T10:11:21;8.65;;;7.88;;
10657;SDS011;5377;43.276;26.930;2024-02-23T10:13:47;8.48;;;7.78;;
10657;SDS011;5377;43.276;26.930;2024-02-23T10:16:15;8.23;;;7.53;;
10657;SDS011;5377;43.276;26.930;2024-02-23T10:18:42;8.38;;;7.57;;
10657;SDS011;5377;43.276;26.930;2024-02-23T10:21:09;9.00;;;8.20;;
10657;SDS011;5377;43.276;26.930;2024-02-23T10:23:35;9.90;;;8.25;;
10657;SDS011;5377;43.276;26.930;2024-02-23T10:26:02;10.43;;;8.10;;
10657;SDS011;5377;43.276;26.930;2024-02-23T10:28:32;8.82;;;7.93;;
10657;SDS011;5377;43.276;26.930;2024-02-23T10:30:59;8.40;;;7.60;;
10657;SDS011;5377;43.276;26.930;2024-02-23T10:33:27;8.25;;;7.00;;
10657;SDS011;5377;43.276;26.930;2024-02-23T10:35:55;13.90;;;7.90;;
10657;SDS011;5377;43.276;26.930;2024-02-23T10:38:22;7.30;;;6.70;;
10657;SDS011;5377;43.276;26.930;2024-02-23T10:40:50;6.63;;;6.10;;
10657;SDS011;5377;43.276;26.930;2024-02-23T10:43:20;6.85;;;6.25;;
10657;SDS011;5377;43.276;26.930;2024-02-23T10:45:49;6.10;;;5.70;;
10657;SDS011;5377;43.276;26.930;2024-02-23T10:48:16;6.47;;;5.93;;
10657;SDS011;5377;43.276;26.930;2024-02-23T10:50:43;6.70;;;6.10;;
10657;SDS011;5377;43.276;26.930;2024-02-23T10:53:10;5.55;;;5.15;;
10657;SDS011;5377;43.276;26.930;2024-02-23T10:55:37;6.68;;;6.05;;
10657;SDS011;5377;43.276;26.930;2024-02-23T10:58:04;5.75;;;5.30;;
10657;SDS011;5377;43.276;26.930;2024-02-23T11:00:34;5.38;;;4.95;;
10657;SDS011;5377;43.276;26.930;2024-02-23T11:03:02;6.53;;;6.03;;
10657;SDS011;5377;43.276;26.930;2024-02-23T11:05:29;6.10;;;5.70;;
10657;SDS011;5377;43.276;26.930;2024-02-23T11:07:57;7.47;;;6.30;;
10657;SDS011;5377;43.276;26.930;2024-02-23T11:10:24;5.70;;;5.30;;
10657;SDS011;5377;43.276;26.930;2024-02-23T11:12:56;6.13;;;5.63;;
10657;SDS011;5377;43.276;26.930;2024-02-23T11:15:26;12.07;;;7.13;;
10657;SDS011;5377;43.276;26.930;2024-02-23T11:17:53;6.50;;;6.05;;
10657;SDS011;5377;43.276;26.930;2024-02-23T11:20:21;6.18;;;5.70;;
10657;SDS011;5377;43.276;26.930;2024-02-23T11:22:51;7.03;;;6.53;;
10657;SDS011;5377;43.276;26.930;2024-02-23T11:25:18;6.43;;;5.93;;
10657;SDS011;5377;43.276;26.930;2024-02-23T11:27:48;6.22;;;5.63;;
10657;SDS011;5377;43.276;26.930;2024-02-23T11:30:16;6.47;;;6.00;;
10657;SDS011;5377;43.276;26.930;2024-02-23T11:32:44;6.22;;;5.70;;
10657;SDS011;5377;43.276;26.930;2024-02-23T11:35:12;6.90;;;6.05;;
10657;SDS011;5377;43.276;26.930;2024-02-23T11:37:47;11.27;;;7.80;;
10657;SDS011;5377;43.276;26.930;2024-02-23T11:40:14;6.43;;;5.93;;
10657;SDS011;5377;43.276;26.930;2024-02-23T11:42:41;6.57;;;6.07;;
10657;SDS011;5377;43.276;26.930;2024-02-23T11:45:08;5.38;;;4.97;;
10657;SDS011;5377;43.276;26.930;2024-02-23T11:47:36;6.97;;;6.38;;
10657;SDS011;5377;43.276;26.930;2024-02-23T11:50:02;5.15;;;4.78;;
10657;SDS011;5377;43.276;26.930;2024-02-23T11:52:30;5.40;;;4.90;;
10657;SDS011;5377;43.276;26.930;2024-02-23T11:54:58;5.35;;;4.95;;
10657;SDS011;5377;43.276;26.930;2024-02-23T11:57:25;5.25;;;4.90;;
10657;SDS011;5377;43.276;26.930;2024-02-23T11:59:51;5.93;;;5.00;;
10657;SDS011;5377;43.276;26.930;2024-02-23T12:02:18;7.45;;;5.13;;
10657;SDS011;5377;43.276;26.930;2024-02-23T12:04:45;5.25;;;4.75;;
10657;SDS011;5377;43.276;26.930;2024-02-23T12:07:11;5.78;;;5.05;;
10657;SDS011;5377;43.276;26.930;2024-02-23T12:09:38;5.32;;;4.68;;
10657;SDS011;5377;43.276;26.930;2024-02-23T12:12:07;4.75;;;4.35;;
10657;SDS011;5377;43.276;26.930;2024-02-23T12:14:35;5.65;;;5.03;;
10657;SDS011;5377;43.276;26.930;2024-02-23T12:17:01;4.90;;;4.57;;
10657;SDS011;5377;43.276;26.930;2024-02-23T12:19:29;5.40;;;5.00;;
10657;SDS011;5377;43.276;26.930;2024-02-23T12:21:59;4.93;;;4.43;;
10657;SDS011;5377;43.276;26.930;2024-02-23T12:24:25;6.25;;;5.75;;
10657;SDS011;5377;43.276;26.930;2024-02-23T12:26:53;6.70;;;5.95;;
10657;SDS011;5377;43.276;26.930;2024-02-23T12:29:21;7.28;;;5.90;;
10657;SDS011;5377;43.276;26.930;2024-02-23T12:31:48;8.60;;;7.20;;
10657;SDS011;5377;43.276;26.930;2024-02-23T12:34:14;5.40;;;4.82;;
10657;SDS011;5377;43.276;26.930;2024-02-23T12:36:41;10.77;;;9.85;;
10657;SDS011;5377;43.276;26.930;2024-02-23T12:39:07;15.57;;;14.10;;
10657;SDS011;5377;43.276;26.930;2024-02-23T12:41:34;15.85;;;11.57;;
10657;SDS011;5377;43.276;26.930;2024-02-23T12:44:00;8.48;;;7.20;;
10657;SDS011;5377;43.276;26.930;2024-02-23T12:46:28;6.53;;;5.10;;
10657;SDS011;5377;43.276;26.930;2024-02-23T12:48:55;5.38;;;4.97;;
10657;SDS011;5377;43.276;26.930;2024-02-23T12:51:24;5.80;;;5.40;;
10657;SDS011;5377;43.276;26.930;2024-02-23T12:53:51;5.25;;;4.72;;
10657;SDS011;5377;43.276;26.930;2024-02-23T12:56:17;7.93;;;4.93;;
10657;SDS011;5377;43.276;26.930;2024-02-23T12:58:45;9.23;;;7.47;;
10657;SDS011;5377;43.276;26.930;2024-02-23T13:01:11;9.95;;;5.82;;
10657;SDS011;5377;43.276;26.930;2024-02-23T13:03:39;5.97;;;5.38;;
10657;SDS011;5377;43.276;26.930;2024-02-23T13:06:06;8.93;;;7.15;;
10657;SDS011;5377;43.276;26.930;2024-02-23T13:08:33;25.33;;;21.98;;
10657;SDS011;5377;43.276;26.930;2024-02-23T13:11:00;17.73;;;15.93;;
10657;SDS011;5377;43.276;26.930;2024-02-23T13:13:27;8.88;;;8.07;;
10657;SDS011;5377;43.276;26.930;2024-02-23T13:15:54;7.30;;;6.78;;
10657;SDS011;5377;43.276;26.930;2024-02-23T13:18:22;8.07;;;6.28;;
10657;SDS011;5377;43.276;26.930;2024-02-23T13:20:50;8.10;;;5.80;;
10657;SDS011;5377;43.276;26.930;2024-02-23T13:23:16;11.18;;;8.05;;
10657;SDS011;5377;43.276;26.930;2024-02-23T13:25:43;10.45;;;6.72;;
10657;SDS011;5377;43.276;26.930;2024-02-23T13:28:10;6.57;;;5.93;;
10657;SDS011;5377;43.276;26.930;2024-02-23T13:30:37;6.70;;;6.10;;
10657;SDS011;5377;43.276;26.930;2024-02-23T13:33:04;6.03;;;5.43;;
10657;SDS011;5377;43.276;26.930;2024-02-23T13:35:31;5.25;;;4.88;;
10657;SDS011;5377;43.276;26.930;2024-02-23T13:37:59;4.88;;;4.45;;
10657;SDS011;5377;43.276;26.930;2024-02-23T13:40:28;5.88;;;4.35;;
10657;SDS011;5377;43.276;26.930;2024-02-23T13:42:54;20.80;;;11.20;;
10657;SDS011;5377;43.276;26.930;2024-02-23T13:45:21;11.57;;;8.75;;
10657;SDS011;5377;43.276;26.930;2024-02-23T13:47:55;11.30;;;10.13;;
10657;SDS011;5377;43.276;26.930;2024-02-23T13:50:22;6.85;;;6.25;;
10657;SDS011;5377;43.276;26.930;2024-02-23T13:52:48;10.40;;;5.18;;
10657;SDS011;5377;43.276;26.930;2024-02-23T13:55:16;5.38;;;4.90;;
10657;SDS011;5377;43.276;26.930;2024-02-23T13:57:44;13.05;;;6.47;;
10657;SDS011;5377;43.276;26.930;2024-02-23T14:00:11;11.40;;;8.70;;
10657;SDS011;5377;43.276;26.930;2024-02-23T14:02:38;13.95;;;9.23;;
10657;SDS011;5377;43.276;26.930;2024-02-23T14:05:06;10.25;;;8.38;;
10657;SDS011;5377;43.276;26.930;2024-02-23T14:07:33;5.32;;;4.03;;
10657;SDS011;5377;43.276;26.930;2024-02-23T14:09:59;8.10;;;4.28;;
10657;SDS011;5377;43.276;26.930;2024-02-23T14:12:27;9.05;;;3.95;;
10657;SDS011;5377;43.276;26.930;2024-02-23T14:14:54;4.22;;;3.83;;
10657;SDS011;5377;43.276;26.930;2024-02-23T14:17:20;4.80;;;3.75;;
10657;SDS011;5377;43.276;26.930;2024-02-23T14:19:47;4.68;;;4.10;;
10657;SDS011;5377;43.276;26.930;2024-02-23T14:22:15;6.57;;;4.28;;
10657;SDS011;5377;43.276;26.930;2024-02-23T14:24:42;6.68;;;4.53;;
10657;SDS011;5377;43.276;26.930;2024-02-23T14:27:08;4.60;;;3.90;;
10657;SDS011;5377;43.276;26.930;2024-02-23T14:29:36;6.07;;;3.65;;